createdAt,value
2018-06-15T05:04:26.087Z,2.33
2018-06-15T05:09:36.603Z,2.20
2018-06-15T05:14:39.942Z,2.17
2018-06-15T05:19:43.447Z,2.23
2018-06-15T05:24:46.787Z,2.93
2018-06-15T05:29:50.806Z,2.57
2018-06-15T05:34:54.126Z,2.03
2018-06-15T05:39:57.475Z,2.50
2018-06-15T05:45:00.807Z,2.53
2018-06-15T05:50:16.751Z,2.30
2018-06-15T05:55:20.090Z,2.53
2018-06-15T06:00:24.183Z,3.07
2018-06-15T06:05:27.508Z,2.70
2018-06-15T06:10:30.846Z,3.20
2018-06-15T06:15:34.937Z,2.97
2018-06-15T06:20:38.276Z,3.27
2018-06-15T06:25:41.754Z,2.60
2018-06-15T06:30:45.103Z,3.13
2018-06-15T06:35:49.211Z,3.43
2018-06-15T06:40:52.550Z,3.53
2018-06-15T06:45:55.895Z,3.67
2018-06-15T06:50:59.999Z,4.10
2018-06-15T06:56:04.095Z,4.30
2018-06-15T07:01:07.425Z,3.47
2018-06-15T07:06:10.824Z,4.03
2018-06-15T07:11:14.128Z,3.07
2018-06-15T07:16:17.455Z,2.90
2018-06-15T07:21:20.809Z,2.60
2018-06-15T07:26:24.918Z,2.73
2018-06-15T07:31:29.006Z,2.70
2018-06-15T07:36:32.335Z,2.57
2018-06-15T07:41:35.673Z,2.20
2018-06-15T07:46:39.012Z,2.30
2018-06-15T07:51:42.338Z,2.37
2018-06-15T07:56:45.676Z,2.40
2018-06-15T08:01:49.016Z,2.33
2018-06-15T08:06:52.345Z,2.83
2018-06-15T08:11:56.459Z,2.33
2018-06-15T08:16:59.959Z,2.73
2018-06-15T08:22:03.304Z,2.90
2018-06-15T08:27:06.644Z,3.27
2018-06-15T08:32:10.019Z,3.30
2018-06-15T08:37:13.367Z,2.70
2018-06-15T08:42:17.521Z,2.47
2018-06-15T08:47:21.624Z,3.50
2018-06-15T08:52:25.723Z,2.90
2018-06-15T08:57:29.083Z,3.43
2018-06-15T09:02:32.458Z,2.50
2018-06-15T09:07:35.798Z,3.17
2018-06-15T09:12:39.254Z,3.70
2018-06-15T09:17:42.610Z,3.57
2018-06-15T09:22:46.746Z,3.83
2018-06-15T09:27:51.139Z,3.70
2018-06-15T09:32:54.482Z,3.10
2018-06-15T09:37:57.810Z,3.27
2018-06-15T09:43:01.904Z,3.60
2018-06-15T09:48:05.255Z,3.27
2018-06-15T09:53:08.610Z,2.93
2018-06-15T09:58:11.938Z,2.77
2018-06-15T10:03:15.261Z,3.40
2018-06-15T10:08:19.050Z,3.17
2018-06-15T10:13:22.679Z,2.63
2018-06-15T10:18:26.044Z,3.80
2018-06-15T10:23:30.150Z,3.43
2018-06-15T10:28:33.487Z,3.40
2018-06-15T10:33:37.781Z,3.57
2018-06-15T10:38:41.106Z,3.50
2018-06-15T10:43:44.447Z,3.67
2018-06-15T10:48:48.551Z,4.00
2018-06-15T10:53:51.887Z,2.90
2018-06-15T10:58:55.991Z,2.80
2018-06-15T11:03:59.320Z,2.50
2018-06-15T11:09:02.677Z,2.93
2018-06-15T11:14:05.992Z,2.97
2018-06-15T11:19:09.331Z,3.67
2018-06-15T11:24:12.663Z,2.50
2018-06-15T11:29:16.001Z,3.03
2018-06-15T11:34:20.090Z,3.03
2018-06-15T11:39:23.411Z,2.67
2018-06-15T11:44:26.758Z,3.53
2018-06-15T11:49:31.033Z,2.80
2018-06-15T11:54:34.659Z,2.90
2018-06-15T11:59:38.094Z,3.83
2018-06-15T12:04:41.459Z,2.40
2018-06-15T12:09:44.806Z,3.23
2018-06-15T12:14:48.131Z,1.87
2018-06-15T12:19:51.461Z,2.20
2018-06-15T12:24:54.792Z,2.77
2018-06-15T12:29:58.887Z,2.80
2018-06-15T12:35:02.244Z,3.20
2018-06-15T12:40:05.570Z,2.87
2018-06-15T12:45:08.927Z,1.77
2018-06-15T12:50:13.016Z,2.30
2018-06-15T12:55:16.379Z,3.33
2018-06-15T13:00:19.862Z,2.20
2018-06-15T13:05:23.227Z,2.93
2018-06-15T13:10:27.317Z,2.40
2018-06-15T13:15:30.662Z,3.00
2018-06-15T13:20:34.767Z,2.20
2018-06-15T13:25:39.739Z,2.63
2018-06-15T13:30:43.078Z,2.70
2018-06-15T13:35:47.191Z,2.93
2018-06-15T13:40:50.663Z,2.27
2018-06-15T13:45:54.022Z,2.00
2018-06-15T13:50:58.314Z,2.13
2018-06-15T13:56:01.653Z,1.80
2018-06-15T14:01:04.999Z,2.00
2018-06-15T14:06:08.332Z,1.67
2018-06-15T14:11:11.667Z,1.87
2018-06-15T14:16:15.015Z,1.67
2018-06-15T14:21:19.138Z,1.77
2018-06-15T14:26:22.734Z,2.13
2018-06-15T14:31:26.079Z,2.03
2018-06-15T14:36:29.422Z,2.10
2018-06-15T14:41:32.835Z,1.60
2018-06-15T14:46:36.379Z,2.27
2018-06-15T14:51:40.108Z,1.60
2018-06-15T14:56:43.494Z,2.13
2018-06-15T15:01:47.675Z,1.50
2018-06-15T15:06:51.206Z,1.40
2018-06-15T15:11:55.310Z,2.03
2018-06-15T15:16:58.927Z,1.77
2018-06-15T15:22:02.265Z,1.50
2018-06-15T15:27:05.608Z,1.70
2018-06-15T15:32:09.059Z,1.80
2018-06-15T15:37:18.026Z,1.52
2018-06-15T15:42:21.366Z,1.90
2018-06-15T15:47:24.699Z,1.80
2018-06-15T15:52:28.029Z,1.63
2018-06-15T15:57:31.368Z,1.80
2018-06-15T16:02:34.695Z,1.60
2018-06-15T16:07:38.071Z,2.00
2018-06-15T16:12:41.544Z,1.60
2018-06-15T16:17:45.000Z,2.35
2018-06-15T16:22:48.339Z,1.33
2018-06-15T16:27:51.822Z,1.60
2018-06-15T16:32:55.161Z,1.50
2018-06-15T16:37:58.598Z,1.60
2018-06-15T16:43:02.847Z,1.30
2018-06-15T16:48:06.277Z,1.30
2018-06-15T16:53:09.618Z,1.98
2018-06-15T16:58:12.949Z,1.80
2018-06-15T17:03:16.277Z,1.70
2018-06-15T17:13:57.127Z,1.73
2018-06-15T17:19:01.225Z,1.87
2018-06-15T17:24:04.578Z,2.03
2018-06-15T17:29:07.928Z,1.75
2018-06-15T17:34:11.294Z,1.80
2018-06-15T17:39:15.387Z,1.90
2018-06-15T17:44:18.743Z,1.90
2018-06-15T17:49:22.955Z,1.77
2018-06-15T17:54:27.113Z,2.33
2018-06-15T17:59:37.770Z,1.60
2018-06-15T18:04:41.090Z,1.50
2018-06-15T18:09:45.517Z,1.63
2018-06-15T18:14:49.630Z,1.43
2018-06-15T18:19:52.958Z,1.77
2018-06-15T18:24:56.292Z,1.53
2018-06-15T18:30:00.471Z,2.00
2018-06-15T18:35:03.840Z,2.27
2018-06-15T18:40:18.655Z,1.80
2018-06-15T18:45:21.983Z,1.93
2018-06-15T18:50:51.484Z,2.13
2018-06-15T18:55:54.821Z,1.67
2018-06-15T19:00:58.150Z,2.13
2018-06-15T19:06:02.833Z,1.87
2018-06-15T19:11:06.330Z,1.90
2018-06-15T19:16:11.077Z,2.13
2018-06-15T19:21:14.979Z,1.50
2018-06-15T19:26:18.326Z,1.97
2018-06-15T19:31:21.703Z,2.60
2018-06-15T19:36:25.049Z,2.60
2018-06-15T19:41:28.393Z,3.57
2018-06-15T19:46:32.499Z,2.87
2018-06-15T19:51:35.902Z,2.67
2018-06-15T19:56:39.560Z,2.60
2018-06-15T20:01:42.944Z,2.20
2018-06-15T20:06:46.542Z,4.00
2018-06-15T20:11:49.879Z,2.77
2018-06-15T20:16:53.219Z,4.17
2018-06-15T20:21:56.554Z,3.47
2018-06-15T20:26:59.887Z,3.07
2018-06-15T20:32:03.219Z,2.63
2018-06-15T20:37:06.582Z,2.70
2018-06-15T20:42:09.914Z,3.20
2018-06-15T20:47:13.250Z,3.33
2018-06-15T20:52:16.610Z,12.07
2018-06-15T20:57:19.938Z,10.50
2018-06-15T21:02:23.271Z,4.90
2018-06-15T21:07:27.035Z,3.83
2018-06-15T21:12:31.125Z,3.80
2018-06-15T21:17:34.650Z,4.33
2018-06-15T21:22:38.007Z,4.20
2018-06-15T21:27:42.358Z,5.23
2018-06-15T21:32:46.206Z,7.27
2018-06-15T21:37:49.583Z,6.03
2018-06-15T21:42:53.679Z,4.87
2018-06-15T21:47:57.042Z,3.80
2018-06-15T21:53:00.400Z,4.50
2018-06-15T21:58:03.731Z,3.80
2018-06-15T22:03:07.060Z,3.70
2018-06-15T22:08:11.158Z,3.77
2018-06-15T22:13:14.503Z,3.93
2018-06-15T22:18:18.607Z,4.07
2018-06-15T22:23:21.947Z,3.80
2018-06-15T22:28:26.050Z,3.70
